< < Back
Terminal Aerodrome Forecast


Current Version              Previous Versions:   1  2  3  4  5  6  7  8  9  

Terminal Aerodrome Forecast

169
FTUS42 KJAX 280110 AAA
TAFJAX
TAF AMD
KJAX 280110Z 2801/2824 09004KT P6SM VCSH FEW030 SCT050 BKN250
      TEMPO 2801/2804 5SM SHRA SCT020 BKN040
     FM280400 06005KT P6SM FEW030 SCT250
     FM281400 08010G15KT P6SM VCSH SCT025 BKN040 PROB30 2818/2824
      5SM TSRA BKN050CB=

Latest METAR

855
SAUS80 KWBC 281800 RRA
MTRJAX
METAR KJAX 281756Z 09014KT 10SM SCT037 SCT250 32/23 A3003 RMK AO2 SLP170
TCU DSNT E T03220228 10328 20267 58010


USA.gov is the U.S. government's official web portal to all federal, state and local government web resources and services.